sensor_id;sensor_type;location;lat;lon;timestamp;pressure;altitude;pressure_sealevel;temperature;humidity
71145;BME280;58812;47.698;17.726;2023-02-18T00:02:02;100655.78;;;10.55;87.41
71145;BME280;58812;47.698;17.726;2023-02-18T00:04:28;100655.41;;;10.69;87.22
71145;BME280;58812;47.698;17.726;2023-02-18T00:06:53;100659.47;;;10.73;87.24
71145;BME280;58812;47.698;17.726;2023-02-18T00:09:19;100661.66;;;10.99;86.49
71145;BME280;58812;47.698;17.726;2023-02-18T00:11:44;100666.31;;;11.16;86.42
71145;BME280;58812;47.698;17.726;2023-02-18T00:14:12;100657.56;;;11.53;84.81
71145;BME280;58812;47.698;17.726;2023-02-18T00:16:38;100661.88;;;11.73;83.56
71145;BME280;58812;47.698;17.726;2023-02-18T00:19:07;100648.00;;;11.97;82.39
71145;BME280;58812;47.698;17.726;2023-02-18T00:21:36;100650.91;;;12.23;80.76
71145;BME280;58812;47.698;17.726;2023-02-18T00:24:03;100649.72;;;12.35;79.92
71145;BME280;58812;47.698;17.726;2023-02-18T00:26:29;100642.56;;;12.53;78.75
71145;BME280;58812;47.698;17.726;2023-02-18T00:28:54;100641.91;;;12.69;77.78
71145;BME280;58812;47.698;17.726;2023-02-18T00:31:29;100645.50;;;12.78;77.26
71145;BME280;58812;47.698;17.726;2023-02-18T00:33:56;100645.34;;;12.79;77.05
71145;BME280;58812;47.698;17.726;2023-02-18T00:36:23;100633.97;;;12.68;77.90
71145;BME280;58812;47.698;17.726;2023-02-18T00:38:52;100641.28;;;12.75;77.50
71145;BME280;58812;47.698;17.726;2023-02-18T00:41:18;100635.53;;;12.88;76.68
71145;BME280;58812;47.698;17.726;2023-02-18T00:43:45;100628.16;;;12.90;76.45
71145;BME280;58812;47.698;17.726;2023-02-18T00:46:11;100630.03;;;13.07;75.34
71145;BME280;58812;47.698;17.726;2023-02-18T00:48:38;100628.94;;;13.00;75.80
71145;BME280;58812;47.698;17.726;2023-02-18T00:51:04;100632.31;;;13.02;75.64
71145;BME280;58812;47.698;17.726;2023-02-18T00:53:30;100621.34;;;12.96;75.94
71145;BME280;58812;47.698;17.726;2023-02-18T00:55:56;100621.72;;;13.01;75.32
71145;BME280;58812;47.698;17.726;2023-02-18T00:58:21;100634.63;;;12.97;75.90
71145;BME280;58812;47.698;17.726;2023-02-18T01:00:48;100634.22;;;12.92;76.12
71145;BME280;58812;47.698;17.726;2023-02-18T01:03:14;100639.16;;;12.97;75.96
71145;BME280;58812;47.698;17.726;2023-02-18T01:05:40;100640.22;;;12.86;76.62
71145;BME280;58812;47.698;17.726;2023-02-18T01:08:07;100642.53;;;12.81;76.99
71145;BME280;58812;47.698;17.726;2023-02-18T01:10:34;100637.59;;;12.76;77.29
71145;BME280;58812;47.698;17.726;2023-02-18T01:13:00;100640.59;;;12.73;77.51
71145;BME280;58812;47.698;17.726;2023-02-18T01:15:28;100630.47;;;12.85;76.75
71145;BME280;58812;47.698;17.726;2023-02-18T01:17:54;100633.37;;;12.74;77.38
71145;BME280;58812;47.698;17.726;2023-02-18T01:20:19;100638.44;;;12.77;77.22
71145;BME280;58812;47.698;17.726;2023-02-18T01:22:45;100632.69;;;12.72;77.39
71145;BME280;58812;47.698;17.726;2023-02-18T01:25:11;100623.56;;;12.82;77.00
71145;BME280;58812;47.698;17.726;2023-02-18T01:27:37;100633.06;;;12.77;77.16
71145;BME280;58812;47.698;17.726;2023-02-18T01:30:04;100636.22;;;12.90;76.26
71145;BME280;58812;47.698;17.726;2023-02-18T01:32:30;100622.41;;;12.85;76.41
71145;BME280;58812;47.698;17.726;2023-02-18T01:34:55;100614.34;;;12.85;76.51
71145;BME280;58812;47.698;17.726;2023-02-18T01:37:21;100634.47;;;12.81;76.46
71145;BME280;58812;47.698;17.726;2023-02-18T01:39:47;100631.06;;;12.79;76.64
71145;BME280;58812;47.698;17.726;2023-02-18T01:42:22;100624.84;;;12.78;76.37
71145;BME280;58812;47.698;17.726;2023-02-18T01:44:48;100619.84;;;12.66;76.87
71145;BME280;58812;47.698;17.726;2023-02-18T01:47:14;100626.09;;;12.84;75.92
71145;BME280;58812;47.698;17.726;2023-02-18T01:49:40;100626.94;;;12.84;75.61
71145;BME280;58812;47.698;17.726;2023-02-18T01:52:12;100626.09;;;12.84;75.59
71145;BME280;58812;47.698;17.726;2023-02-18T01:54:46;100625.62;;;12.89;75.33
71145;BME280;58812;47.698;17.726;2023-02-18T01:57:17;100627.53;;;12.78;75.90
71145;BME280;58812;47.698;17.726;2023-02-18T02:02:44;100639.69;;;12.82;75.36
71145;BME280;58812;47.698;17.726;2023-02-18T02:05:11;100628.53;;;12.77;75.70
71145;BME280;58812;47.698;17.726;2023-02-18T02:07:38;100630.28;;;12.69;76.21
71145;BME280;58812;47.698;17.726;2023-02-18T02:10:05;100625.69;;;12.61;76.78
71145;BME280;58812;47.698;17.726;2023-02-18T02:12:58;100626.84;;;12.59;76.97
71145;BME280;58812;47.698;17.726;2023-02-18T02:40:29;100610.31;;;10.24;82.54
71145;BME280;58812;47.698;17.726;2023-02-18T02:43:20;100607.88;;;10.11;82.40
71145;BME280;58812;47.698;17.726;2023-02-18T02:51:29;100606.13;;;10.01;82.64
71145;BME280;58812;47.698;17.726;2023-02-18T02:54:16;100612.75;;;9.97;82.87
71145;BME280;58812;47.698;17.726;2023-02-18T02:56:42;100612.06;;;10.04;82.57
71145;BME280;58812;47.698;17.726;2023-02-18T02:59:13;100613.06;;;10.03;83.32
71145;BME280;58812;47.698;17.726;2023-02-18T03:02:07;100606.03;;;10.12;83.09
71145;BME280;58812;47.698;17.726;2023-02-18T03:04:50;100612.53;;;10.19;82.31
71145;BME280;58812;47.698;17.726;2023-02-18T03:10:12;100613.75;;;10.26;82.01
71145;BME280;58812;47.698;17.726;2023-02-18T03:15:48;100618.09;;;10.27;81.95
71145;BME280;58812;47.698;17.726;2023-02-18T03:18:22;100618.09;;;10.27;81.50
71145;BME280;58812;47.698;17.726;2023-02-18T03:23:34;100610.84;;;10.18;82.53
71145;BME280;58812;47.698;17.726;2023-02-18T03:26:03;100612.00;;;10.25;83.57
71145;BME280;58812;47.698;17.726;2023-02-18T03:28:31;100617.56;;;10.33;82.94
71145;BME280;58812;47.698;17.726;2023-02-18T03:31:02;100609.78;;;10.30;83.27
71145;BME280;58812;47.698;17.726;2023-02-18T03:33:44;100606.13;;;10.31;83.75
71145;BME280;58812;47.698;17.726;2023-02-18T03:36:10;100613.59;;;10.97;84.91
71145;BME280;58812;47.698;17.726;2023-02-18T03:38:44;100610.09;;;11.82;82.17
71145;BME280;58812;47.698;17.726;2023-02-18T03:41:13;100605.34;;;12.31;79.81
71145;BME280;58812;47.698;17.726;2023-02-18T03:43:40;100610.94;;;12.47;78.92
71145;BME280;58812;47.698;17.726;2023-02-18T03:46:06;100610.59;;;12.50;78.72
71145;BME280;58812;47.698;17.726;2023-02-18T03:48:31;100618.16;;;12.65;77.85
71145;BME280;58812;47.698;17.726;2023-02-18T03:50:57;100613.47;;;12.67;77.68
71145;BME280;58812;47.698;17.726;2023-02-18T03:53:22;100607.72;;;12.62;77.80
71145;BME280;58812;47.698;17.726;2023-02-18T03:55:47;100621.75;;;12.55;78.19
71145;BME280;58812;47.698;17.726;2023-02-18T03:58:13;100616.78;;;12.61;77.81
71145;BME280;58812;47.698;17.726;2023-02-18T04:00:38;100603.28;;;12.52;78.31
71145;BME280;58812;47.698;17.726;2023-02-18T04:03:04;100600.97;;;12.57;77.96
71145;BME280;58812;47.698;17.726;2023-02-18T04:05:29;100609.41;;;12.63;77.69
71145;BME280;58812;47.698;17.726;2023-02-18T04:07:54;100608.44;;;12.36;79.05
71145;BME280;58812;47.698;17.726;2023-02-18T04:10:20;100608.25;;;12.47;78.44
71145;BME280;58812;47.698;17.726;2023-02-18T04:12:47;100610.37;;;12.44;78.58
71145;BME280;58812;47.698;17.726;2023-02-18T04:15:12;100609.13;;;12.38;78.97
71145;BME280;58812;47.698;17.726;2023-02-18T04:17:38;100606.50;;;12.28;79.40
71145;BME280;58812;47.698;17.726;2023-02-18T04:20:04;100608.06;;;12.21;79.89
71145;BME280;58812;47.698;17.726;2023-02-18T04:22:30;100607.34;;;12.29;79.54
71145;BME280;58812;47.698;17.726;2023-02-18T04:24:56;100604.56;;;12.21;80.08
71145;BME280;58812;47.698;17.726;2023-02-18T04:27:21;100609.66;;;12.14;80.43
71145;BME280;58812;47.698;17.726;2023-02-18T04:29:47;100609.91;;;12.21;80.13
71145;BME280;58812;47.698;17.726;2023-02-18T04:32:12;100615.63;;;12.08;80.71
71145;BME280;58812;47.698;17.726;2023-02-18T04:34:37;100615.59;;;12.18;80.41
71145;BME280;58812;47.698;17.726;2023-02-18T04:37:03;100618.88;;;12.12;80.55
71145;BME280;58812;47.698;17.726;2023-02-18T04:39:28;100617.66;;;11.96;81.43
71145;BME280;58812;47.698;17.726;2023-02-18T04:41:53;100615.97;;;11.95;81.46
71145;BME280;58812;47.698;17.726;2023-02-18T04:44:19;100621.06;;;11.98;81.40
71145;BME280;58812;47.698;17.726;2023-02-18T04:46:44;100619.94;;;11.91;81.81
71145;BME280;58812;47.698;17.726;2023-02-18T04:49:10;100624.22;;;11.74;82.60
71145;BME280;58812;47.698;17.726;2023-02-18T04:51:35;100633.81;;;11.87;82.03
71145;BME280;58812;47.698;17.726;2023-02-18T04:54:02;100633.50;;;11.80;82.22
71145;BME280;58812;47.698;17.726;2023-02-18T04:56:27;100637.06;;;11.71;82.92
71145;BME280;58812;47.698;17.726;2023-02-18T04:58:53;100628.31;;;11.69;83.14
71145;BME280;58812;47.698;17.726;2023-02-18T05:01:18;100632.69;;;11.70;83.13
71145;BME280;58812;47.698;17.726;2023-02-18T05:03:44;100629.00;;;11.71;83.11
71145;BME280;58812;47.698;17.726;2023-02-18T05:06:10;100632.09;;;11.76;82.65
71145;BME280;58812;47.698;17.726;2023-02-18T05:08:35;100626.75;;;11.76;82.71
71145;BME280;58812;47.698;17.726;2023-02-18T05:11:04;100634.66;;;11.68;83.02
71145;BME280;58812;47.698;17.726;2023-02-18T05:13:30;100631.16;;;11.58;83.53
71145;BME280;58812;47.698;17.726;2023-02-18T05:15:55;100634.09;;;11.64;83.25
71145;BME280;58812;47.698;17.726;2023-02-18T05:18:21;100635.53;;;11.59;83.34
71145;BME280;58812;47.698;17.726;2023-02-18T05:20:46;100640.31;;;11.65;83.09
71145;BME280;58812;47.698;17.726;2023-02-18T05:23:12;100645.94;;;11.62;83.19
71145;BME280;58812;47.698;17.726;2023-02-18T05:25:37;100645.09;;;11.61;83.22
71145;BME280;58812;47.698;17.726;2023-02-18T05:28:03;100648.06;;;11.68;82.88
71145;BME280;58812;47.698;17.726;2023-02-18T05:30:28;100647.09;;;11.59;83.50
71145;BME280;58812;47.698;17.726;2023-02-18T05:32:53;100645.97;;;11.52;83.85
71145;BME280;58812;47.698;17.726;2023-02-18T05:35:19;100649.50;;;11.53;83.85
71145;BME280;58812;47.698;17.726;2023-02-18T05:37:44;100647.81;;;11.52;83.86
71145;BME280;58812;47.698;17.726;2023-02-18T05:40:10;100648.22;;;11.66;83.11
71145;BME280;58812;47.698;17.726;2023-02-18T05:42:36;100655.03;;;11.51;83.90
71145;BME280;58812;47.698;17.726;2023-02-18T05:45:01;100661.91;;;11.54;83.75
71145;BME280;58812;47.698;17.726;2023-02-18T05:47:27;100664.91;;;11.50;83.68
71145;BME280;58812;47.698;17.726;2023-02-18T05:49:52;100672.22;;;11.48;83.74
71145;BME280;58812;47.698;17.726;2023-02-18T05:52:20;100678.47;;;11.39;84.21
71145;BME280;58812;47.698;17.726;2023-02-18T05:54:46;100685.50;;;11.40;84.15
71145;BME280;58812;47.698;17.726;2023-02-18T05:57:13;100692.28;;;11.35;84.60
71145;BME280;58812;47.698;17.726;2023-02-18T05:59:39;100696.66;;;11.45;83.80
71145;BME280;58812;47.698;17.726;2023-02-18T06:02:05;100693.97;;;11.45;83.85
71145;BME280;58812;47.698;17.726;2023-02-18T06:04:30;100699.88;;;11.49;83.57
71145;BME280;58812;47.698;17.726;2023-02-18T06:06:56;100703.56;;;11.48;83.64
71145;BME280;58812;47.698;17.726;2023-02-18T06:09:22;100703.25;;;11.61;82.88
71145;BME280;58812;47.698;17.726;2023-02-18T06:11:47;100724.44;;;11.64;82.81
71145;BME280;58812;47.698;17.726;2023-02-18T06:14:12;100725.28;;;11.55;83.41
71145;BME280;58812;47.698;17.726;2023-02-18T06:16:38;100730.94;;;11.52;84.12
71145;BME280;58812;47.698;17.726;2023-02-18T06:19:03;100731.63;;;11.54;84.95
71145;BME280;58812;47.698;17.726;2023-02-18T06:21:29;100733.59;;;11.61;85.21
71145;BME280;58812;47.698;17.726;2023-02-18T06:23:55;100730.22;;;11.49;85.30
71145;BME280;58812;47.698;17.726;2023-02-18T06:26:20;100732.75;;;11.41;86.22
71145;BME280;58812;47.698;17.726;2023-02-18T06:28:45;100723.31;;;11.47;86.54
71145;BME280;58812;47.698;17.726;2023-02-18T06:31:11;100725.16;;;11.46;87.22
71145;BME280;58812;47.698;17.726;2023-02-18T06:33:36;100718.78;;;11.47;87.18
71145;BME280;58812;47.698;17.726;2023-02-18T06:36:07;100718.78;;;11.67;86.78
71145;BME280;58812;47.698;17.726;2023-02-18T06:38:34;100723.72;;;11.71;86.14
71145;BME280;58812;47.698;17.726;2023-02-18T06:41:00;100722.16;;;11.78;86.41
71145;BME280;58812;47.698;17.726;2023-02-18T06:43:26;100722.19;;;11.69;86.22
71145;BME280;58812;47.698;17.726;2023-02-18T06:45:51;100723.88;;;11.60;86.91
71145;BME280;58812;47.698;17.726;2023-02-18T06:48:17;100726.81;;;11.76;87.45
71145;BME280;58812;47.698;17.726;2023-02-18T06:50:43;100730.78;;;11.72;87.13
71145;BME280;58812;47.698;17.726;2023-02-18T06:53:09;100735.59;;;11.88;86.50
71145;BME280;58812;47.698;17.726;2023-02-18T06:55:34;100733.75;;;11.98;86.42
71145;BME280;58812;47.698;17.726;2023-02-18T06:57:59;100725.81;;;11.97;86.86
71145;BME280;58812;47.698;17.726;2023-02-18T07:00:25;100732.91;;;11.69;88.28
71145;BME280;58812;47.698;17.726;2023-02-18T07:02:50;100720.47;;;11.68;89.36
71145;BME280;58812;47.698;17.726;2023-02-18T07:05:16;100725.00;;;11.48;90.83
71145;BME280;58812;47.698;17.726;2023-02-18T07:07:42;100715.69;;;11.42;91.09
71145;BME280;58812;47.698;17.726;2023-02-18T07:10:08;100705.53;;;11.75;91.77
71145;BME280;58812;47.698;17.726;2023-02-18T07:12:33;100714.41;;;11.56;91.73
71145;BME280;58812;47.698;17.726;2023-02-18T07:14:59;100721.06;;;11.52;92.21
71145;BME280;58812;47.698;17.726;2023-02-18T07:17:24;100722.44;;;11.66;92.38
71145;BME280;58812;47.698;17.726;2023-02-18T07:19:50;100715.72;;;11.81;92.37
71145;BME280;58812;47.698;17.726;2023-02-18T07:22:15;100721.63;;;11.75;92.66
71145;BME280;58812;47.698;17.726;2023-02-18T07:24:41;100714.84;;;11.81;91.20
71145;BME280;58812;47.698;17.726;2023-02-18T07:27:07;100721.34;;;11.68;91.18
71145;BME280;58812;47.698;17.726;2023-02-18T07:29:32;100709.72;;;11.68;92.08
71145;BME280;58812;47.698;17.726;2023-02-18T07:31:58;100708.91;;;11.58;91.75
71145;BME280;58812;47.698;17.726;2023-02-18T07:34:23;100710.59;;;11.68;92.46
71145;BME280;58812;47.698;17.726;2023-02-18T07:36:48;100715.72;;;11.81;91.89
71145;BME280;58812;47.698;17.726;2023-02-18T07:39:14;100717.19;;;12.13;90.74
71145;BME280;58812;47.698;17.726;2023-02-18T07:41:40;100717.28;;;12.21;89.97
71145;BME280;58812;47.698;17.726;2023-02-18T07:44:05;100722.91;;;12.37;89.49
71145;BME280;58812;47.698;17.726;2023-02-18T07:46:31;100714.66;;;12.48;88.60
71145;BME280;58812;47.698;17.726;2023-02-18T07:48:57;100718.16;;;12.59;88.84
71145;BME280;58812;47.698;17.726;2023-02-18T07:51:22;100723.16;;;12.44;88.00
71145;BME280;58812;47.698;17.726;2023-02-18T07:53:48;100715.56;;;12.39;87.69
71145;BME280;58812;47.698;17.726;2023-02-18T07:56:13;100715.22;;;12.52;88.18
71145;BME280;58812;47.698;17.726;2023-02-18T07:58:39;100721.47;;;12.43;86.88
71145;BME280;58812;47.698;17.726;2023-02-18T08:01:10;100722.31;;;12.43;86.46
71145;BME280;58812;47.698;17.726;2023-02-18T08:03:36;100715.56;;;12.67;86.02
71145;BME280;58812;47.698;17.726;2023-02-18T08:06:03;100715.56;;;12.67;83.83
71145;BME280;58812;47.698;17.726;2023-02-18T08:08:30;100710.50;;;12.64;83.60
71145;BME280;58812;47.698;17.726;2023-02-18T08:10:58;100705.06;;;12.46;83.01
71145;BME280;58812;47.698;17.726;2023-02-18T08:13:23;100704.75;;;12.49;83.27
71145;BME280;58812;47.698;17.726;2023-02-18T08:15:49;100701.44;;;12.65;83.55
71145;BME280;58812;47.698;17.726;2023-02-18T08:18:17;100709.06;;;12.69;82.90
71145;BME280;58812;47.698;17.726;2023-02-18T08:20:44;100709.69;;;12.81;82.88
71145;BME280;58812;47.698;17.726;2023-02-18T08:23:11;100704.31;;;12.81;81.08
71145;BME280;58812;47.698;17.726;2023-02-18T08:25:37;100711.06;;;12.85;79.94
71145;BME280;58812;47.698;17.726;2023-02-18T08:28:03;100702.13;;;12.94;78.90
71145;BME280;58812;47.698;17.726;2023-02-18T08:30:28;100700.47;;;13.11;78.16
71145;BME280;58812;47.698;17.726;2023-02-18T08:32:54;100698.69;;;13.20;77.41
71145;BME280;58812;47.698;17.726;2023-02-18T08:35:19;100710.25;;;13.30;77.19
71145;BME280;58812;47.698;17.726;2023-02-18T08:37:45;100701.19;;;13.31;77.53
71145;BME280;58812;47.698;17.726;2023-02-18T08:40:11;100702.97;;;13.40;77.36
71145;BME280;58812;47.698;17.726;2023-02-18T08:42:37;100711.47;;;13.53;76.65
71145;BME280;58812;47.698;17.726;2023-02-18T08:45:03;100707.06;;;13.88;75.55
71145;BME280;58812;47.698;17.726;2023-02-18T08:47:29;100703.12;;;14.08;74.37
71145;BME280;58812;47.698;17.726;2023-02-18T08:49:54;100707.87;;;14.14;73.58
71145;BME280;58812;47.698;17.726;2023-02-18T08:52:20;100695.16;;;14.25;73.19
71145;BME280;58812;47.698;17.726;2023-02-18T08:54:45;100699.88;;;14.57;72.17
71145;BME280;58812;47.698;17.726;2023-02-18T08:57:11;100696.22;;;15.25;70.47
71145;BME280;58812;47.698;17.726;2023-02-18T08:59:36;100691.50;;;15.59;69.08
71145;BME280;58812;47.698;17.726;2023-02-18T09:02:02;100697.25;;;15.89;68.31
71145;BME280;58812;47.698;17.726;2023-02-18T09:04:27;100697.94;;;15.99;66.71
71145;BME280;58812;47.698;17.726;2023-02-18T09:06:53;100698.94;;;15.57;67.59
71145;BME280;58812;47.698;17.726;2023-02-18T09:09:19;100691.22;;;15.79;67.28
71145;BME280;58812;47.698;17.726;2023-02-18T09:11:44;100694.56;;;15.48;68.55
71145;BME280;58812;47.698;17.726;2023-02-18T09:14:10;100700.03;;;14.98;69.79
71145;BME280;58812;47.698;17.726;2023-02-18T09:16:37;100697.47;;;14.88;70.09
71145;BME280;58812;47.698;17.726;2023-02-18T09:19:04;100695.59;;;14.80;70.91
71145;BME280;58812;47.698;17.726;2023-02-18T09:21:30;100687.94;;;15.02;71.00
71145;BME280;58812;47.698;17.726;2023-02-18T09:23:55;100689.50;;;15.61;68.59
71145;BME280;58812;47.698;17.726;2023-02-18T09:26:22;100694.06;;;16.01;66.18
71145;BME280;58812;47.698;17.726;2023-02-18T09:28:50;100691.47;;;16.24;65.97
71145;BME280;58812;47.698;17.726;2023-02-18T09:31:18;100689.53;;;15.78;66.42
71145;BME280;58812;47.698;17.726;2023-02-18T09:33:56;100687.81;;;15.52;67.28
71145;BME280;58812;47.698;17.726;2023-02-18T09:36:22;100684.13;;;15.61;67.20
71145;BME280;58812;47.698;17.726;2023-02-18T09:38:48;100691.28;;;15.12;68.49
71145;BME280;58812;47.698;17.726;2023-02-18T09:41:35;100679.78;;;14.93;69.44
71145;BME280;58812;47.698;17.726;2023-02-18T09:44:05;100682.34;;;14.95;70.67
71145;BME280;58812;47.698;17.726;2023-02-18T09:46:38;100679.59;;;14.71;70.41
71145;BME280;58812;47.698;17.726;2023-02-18T09:49:12;100686.97;;;14.68;70.46
71145;BME280;58812;47.698;17.726;2023-02-18T09:51:39;100690.66;;;14.59;70.91
71145;BME280;58812;47.698;17.726;2023-02-18T09:54:13;100692.28;;;14.52;70.47
71145;BME280;58812;47.698;17.726;2023-02-18T09:56:40;100680.03;;;14.58;70.92
71145;BME280;58812;47.698;17.726;2023-02-18T09:59:12;100683.91;;;14.63;70.89
71145;BME280;58812;47.698;17.726;2023-02-18T10:01:40;100679.41;;;14.38;71.74
71145;BME280;58812;47.698;17.726;2023-02-18T10:04:16;100682.06;;;14.30;71.57
71145;BME280;58812;47.698;17.726;2023-02-18T10:06:45;100675.28;;;14.18;71.94
71145;BME280;58812;47.698;17.726;2023-02-18T10:09:36;100676.69;;;14.30;72.14
71145;BME280;58812;47.698;17.726;2023-02-18T10:12:21;100679.59;;;14.44;71.68
71145;BME280;58812;47.698;17.726;2023-02-18T10:14:54;100685.75;;;14.29;71.26
71145;BME280;58812;47.698;17.726;2023-02-18T10:17:23;100679.38;;;14.30;71.54
71145;BME280;58812;47.698;17.726;2023-02-18T10:19:51;100674.69;;;14.40;71.33
71145;BME280;58812;47.698;17.726;2023-02-18T10:22:19;100654.75;;;14.51;71.43
71145;BME280;58812;47.698;17.726;2023-02-18T10:27:30;100644.56;;;14.71;70.60
71145;BME280;58812;47.698;17.726;2023-02-18T10:30:08;100638.81;;;14.82;69.92
71145;BME280;58812;47.698;17.726;2023-02-18T10:32:44;100644.44;;;15.05;69.15
71145;BME280;58812;47.698;17.726;2023-02-18T10:38:15;100641.59;;;15.39;67.70
71145;BME280;58812;47.698;17.726;2023-02-18T10:51:21;100644.09;;;14.91;68.97
71145;BME280;58812;47.698;17.726;2023-02-18T10:53:50;100636.50;;;14.87;68.96
71145;BME280;58812;47.698;17.726;2023-02-18T10:57:19;100632.12;;;14.94;69.50
71145;BME280;58812;47.698;17.726;2023-02-18T10:59:31;100627.78;;;15.01;68.48
71145;BME280;58812;47.698;17.726;2023-02-18T11:02:00;100630.47;;;15.34;67.00
71145;BME280;58812;47.698;17.726;2023-02-18T11:04:35;100631.03;;;16.17;64.51
71145;BME280;58812;47.698;17.726;2023-02-18T11:07:11;100629.06;;;16.03;64.29
71145;BME280;58812;47.698;17.726;2023-02-18T11:09:46;100620.72;;;15.65;65.29
71145;BME280;58812;47.698;17.726;2023-02-18T11:12:25;100610.91;;;15.64;65.24
71145;BME280;58812;47.698;17.726;2023-02-18T11:17:43;100599.13;;;15.49;66.26
71145;BME280;58812;47.698;17.726;2023-02-18T11:22:57;100583.59;;;15.51;66.18
71145;BME280;58812;47.698;17.726;2023-02-18T11:25:26;100577.31;;;15.59;66.08
71145;BME280;58812;47.698;17.726;2023-02-18T11:27:57;100573.63;;;15.52;65.60
71145;BME280;58812;47.698;17.726;2023-02-18T11:30:38;100582.63;;;15.36;66.01
71145;BME280;58812;47.698;17.726;2023-02-18T11:35:53;100577.03;;;15.37;66.56
71145;BME280;58812;47.698;17.726;2023-02-18T11:38:34;100562.87;;;15.43;66.45
71145;BME280;58812;47.698;17.726;2023-02-18T11:41:12;100565.72;;;15.50;66.25
71145;BME280;58812;47.698;17.726;2023-02-18T11:43:45;100564.84;;;15.74;65.66
71145;BME280;58812;47.698;17.726;2023-02-18T11:46:15;100565.38;;;15.69;65.72
71145;BME280;58812;47.698;17.726;2023-02-18T11:48:41;100551.19;;;15.59;66.16
71145;BME280;58812;47.698;17.726;2023-02-18T11:51:25;100546.06;;;15.97;65.07
71145;BME280;58812;47.698;17.726;2023-02-18T11:54:01;100547.91;;;15.96;65.26
71145;BME280;58812;47.698;17.726;2023-02-18T11:56:34;100539.69;;;15.82;65.61
71145;BME280;58812;47.698;17.726;2023-02-18T11:59:01;100543.38;;;15.89;65.19
71145;BME280;58812;47.698;17.726;2023-02-18T12:03:57;100527.16;;;15.97;65.30
71145;BME280;58812;47.698;17.726;2023-02-18T12:06:31;100522.72;;;16.04;64.98
71145;BME280;58812;47.698;17.726;2023-02-18T12:09:10;100519.56;;;15.92;64.82
71145;BME280;58812;47.698;17.726;2023-02-18T12:11:42;100516.41;;;16.20;64.43
71145;BME280;58812;47.698;17.726;2023-02-18T12:14:15;100515.41;;;16.21;64.36
71145;BME280;58812;47.698;17.726;2023-02-18T12:25:08;100495.41;;;15.99;64.14
71145;BME280;58812;47.698;17.726;2023-02-18T12:27:45;100495.69;;;16.12;64.91
71145;BME280;58812;47.698;17.726;2023-02-18T12:30:56;100487.87;;;15.86;65.66
71145;BME280;58812;47.698;17.726;2023-02-18T12:47:41;100459.41;;;15.75;66.01
71145;BME280;58812;47.698;17.726;2023-02-18T12:55:39;100438.06;;;15.49;63.30
71145;BME280;58812;47.698;17.726;2023-02-18T13:11:43;100427.59;;;15.94;62.25
71145;BME280;58812;47.698;17.726;2023-02-18T13:14:35;100425.72;;;16.25;61.98
71145;BME280;58812;47.698;17.726;2023-02-18T13:17:04;100423.69;;;16.88;58.96
71145;BME280;58812;47.698;17.726;2023-02-18T13:19:49;100421.09;;;16.95;58.64
71145;BME280;58812;47.698;17.726;2023-02-18T13:22:19;100415.53;;;16.96;58.09
71145;BME280;58812;47.698;17.726;2023-02-18T13:24:47;100407.13;;;17.06;57.90
71145;BME280;58812;47.698;17.726;2023-02-18T13:27:38;100401.97;;;16.81;57.29
71145;BME280;58812;47.698;17.726;2023-02-18T13:30:30;100399.31;;;17.26;56.56
71145;BME280;58812;47.698;17.726;2023-02-18T13:36:07;100376.53;;;17.05;56.42
71145;BME280;58812;47.698;17.726;2023-02-18T13:41:19;100372.50;;;17.46;55.24
71145;BME280;58812;47.698;17.726;2023-02-18T13:43:45;100373.38;;;17.31;55.36
71145;BME280;58812;47.698;17.726;2023-02-18T13:51:28;100355.16;;;17.40;55.00
71145;BME280;58812;47.698;17.726;2023-02-18T13:56:42;100331.00;;;16.42;56.85
71145;BME280;58812;47.698;17.726;2023-02-18T14:10:46;100311.34;;;17.15;54.65
71145;BME280;58812;47.698;17.726;2023-02-18T14:17:48;100303.88;;;16.88;59.53
71145;BME280;58812;47.698;17.726;2023-02-18T14:22:51;100306.53;;;16.96;59.32
71145;BME280;58812;47.698;17.726;2023-02-18T14:27:49;100282.56;;;16.25;61.17
71145;BME280;58812;47.698;17.726;2023-02-18T14:30:39;100286.62;;;16.21;62.24
71145;BME280;58812;47.698;17.726;2023-02-18T14:33:05;100281.56;;;16.03;61.80
71145;BME280;58812;47.698;17.726;2023-02-18T14:35:45;100285.59;;;15.85;62.09
71145;BME280;58812;47.698;17.726;2023-02-18T14:38:28;100274.19;;;15.74;63.24
71145;BME280;58812;47.698;17.726;2023-02-18T14:46:58;100274.41;;;15.34;63.58
71145;BME280;58812;47.698;17.726;2023-02-18T14:49:42;100265.34;;;15.27;63.98
71145;BME280;58812;47.698;17.726;2023-02-18T14:52:41;100267.56;;;15.23;63.70
71145;BME280;58812;47.698;17.726;2023-02-18T14:55:30;100268.50;;;15.07;63.46
71145;BME280;58812;47.698;17.726;2023-02-18T15:00:34;100268.16;;;15.02;65.34
71145;BME280;58812;47.698;17.726;2023-02-18T15:03:03;100267.34;;;14.93;65.17
71145;BME280;58812;47.698;17.726;2023-02-18T15:05:31;100256.56;;;14.93;64.27
71145;BME280;58812;47.698;17.726;2023-02-18T15:08:02;100252.00;;;14.94;64.19
71145;BME280;58812;47.698;17.726;2023-02-18T15:10:50;100254.06;;;14.92;64.68
71145;BME280;58812;47.698;17.726;2023-02-18T15:13:25;100254.06;;;14.92;64.81
71145;BME280;58812;47.698;17.726;2023-02-18T15:16:17;100253.06;;;14.85;65.45
71145;BME280;58812;47.698;17.726;2023-02-18T15:18:56;100255.97;;;14.75;65.78
71145;BME280;58812;47.698;17.726;2023-02-18T15:21:27;100251.97;;;14.63;65.82
71145;BME280;58812;47.698;17.726;2023-02-18T15:23:55;100258.25;;;14.47;66.29
71145;BME280;58812;47.698;17.726;2023-02-18T15:26:28;100267.50;;;14.36;67.47